createdAt,value
2022-10-10T00:01:44.419Z,4.00
2022-10-10T00:04:12.656Z,3.50
2022-10-10T00:06:40.539Z,3.50
2022-10-10T00:09:08.402Z,3.25
2022-10-10T00:11:37.659Z,4.00
2022-10-10T00:14:05.928Z,3.50
2022-10-10T00:16:33.830Z,3.50
2022-10-10T00:19:01.689Z,3.50
2022-10-10T00:21:29.680Z,3.00
2022-10-10T00:23:57.819Z,3.00
2022-10-10T00:26:25.648Z,3.00
2022-10-10T00:28:54.906Z,3.50
2022-10-10T00:31:22.811Z,3.50
2022-10-10T00:33:50.981Z,3.50
2022-10-10T00:36:20.552Z,2.50
2022-10-10T00:38:48.489Z,3.50
2022-10-10T00:41:16.359Z,2.75
2022-10-10T00:43:44.526Z,3.25
2022-10-10T00:46:13.759Z,2.50
2022-10-10T00:48:42.862Z,3.75
2022-10-10T00:51:11.372Z,2.75
2022-10-10T00:53:40.736Z,1.75
2022-10-10T00:56:08.669Z,3.50
2022-10-10T00:58:36.635Z,2.50
2022-10-10T01:01:04.528Z,3.50
2022-10-10T01:03:34.075Z,3.00
2022-10-10T01:06:01.933Z,2.50
2022-10-10T01:08:29.804Z,3.00
2022-10-10T01:11:07.049Z,2.50
2022-10-10T01:13:38.362Z,2.50
2022-10-10T01:16:08.317Z,2.50
2022-10-10T01:18:39.561Z,3.00
2022-10-10T01:21:13.087Z,2.75
2022-10-10T01:24:22.525Z,2.75
2022-10-10T01:27:25.404Z,3.00
2022-10-10T01:29:57.663Z,2.25
2022-10-10T01:32:31.432Z,3.25
2022-10-10T01:35:08.846Z,2.75
2022-10-10T01:37:41.172Z,2.25
2022-10-10T01:40:12.776Z,2.50
2022-10-10T01:42:43.030Z,1.75
2022-10-10T01:45:12.569Z,2.75
2022-10-10T01:47:40.457Z,2.00
2022-10-10T01:50:09.677Z,3.00
2022-10-10T01:52:42.686Z,2.25
2022-10-10T01:55:30.415Z,2.75
2022-10-10T01:58:04.784Z,2.00
2022-10-10T02:00:36.835Z,2.50
2022-10-10T02:03:08.445Z,1.75
2022-10-10T02:05:38.714Z,1.00
2022-10-10T02:08:08.846Z,2.75
2022-10-10T02:10:38.382Z,3.00
2022-10-10T02:13:06.521Z,2.00
2022-10-10T02:15:38.072Z,2.50
2022-10-10T02:18:06.155Z,2.50
2022-10-10T02:20:34.043Z,2.50
2022-10-10T02:23:02.190Z,2.50
2022-10-10T02:25:31.120Z,2.00
2022-10-10T02:28:04.151Z,1.75
2022-10-10T02:30:32.384Z,2.50
2022-10-10T02:33:02.357Z,1.75
2022-10-10T02:35:31.967Z,2.50
2022-10-10T02:38:00.008Z,1.50
2022-10-10T02:40:29.497Z,1.50
2022-10-10T02:42:57.382Z,2.50
2022-10-10T02:45:25.228Z,2.00
2022-10-10T02:47:53.094Z,2.50
2022-10-10T02:50:22.413Z,1.50
2022-10-10T02:52:50.510Z,2.75
2022-10-10T02:55:18.899Z,2.50
2022-10-10T02:57:46.775Z,1.50
2022-10-10T03:00:15.341Z,2.50
2022-10-10T03:02:43.214Z,2.00
2022-10-10T03:05:11.565Z,1.75
2022-10-10T03:07:40.825Z,2.00
2022-10-10T03:10:09.396Z,2.50
2022-10-10T03:12:37.279Z,2.50
2022-10-10T03:15:11.664Z,2.50
2022-10-10T03:17:39.922Z,2.00
2022-10-10T03:20:09.197Z,2.75
2022-10-10T03:22:37.101Z,1.50
2022-10-10T03:25:07.511Z,2.50
2022-10-10T03:27:35.343Z,1.50
2022-10-10T03:30:03.251Z,2.25
2022-10-10T03:32:31.107Z,1.75
2022-10-10T03:34:59.324Z,2.25
2022-10-10T03:37:27.196Z,2.50
2022-10-10T03:39:55.226Z,2.50
2022-10-10T03:42:24.471Z,2.75
2022-10-10T03:44:52.632Z,2.75
2022-10-10T03:47:20.535Z,3.25
2022-10-10T03:49:48.392Z,3.50
2022-10-10T03:52:16.469Z,3.50
2022-10-10T03:54:44.870Z,3.50
2022-10-10T03:57:12.730Z,3.25
2022-10-10T03:59:41.970Z,4.75
2022-10-10T04:02:09.852Z,4.50
2022-10-10T04:04:38.191Z,3.50
2022-10-10T04:07:06.017Z,5.50
2022-10-10T04:09:33.908Z,4.50
2022-10-10T04:12:01.785Z,4.00
2022-10-10T04:14:30.130Z,3.75
2022-10-10T04:17:02.968Z,3.75
2022-10-10T04:19:31.269Z,3.50
2022-10-10T04:21:59.142Z,3.75
2022-10-10T04:24:27.394Z,3.75
2022-10-10T04:26:55.612Z,4.00
2022-10-10T04:29:23.500Z,5.50
2022-10-10T04:31:51.344Z,5.50
2022-10-10T04:34:21.012Z,3.50
2022-10-10T04:36:48.909Z,5.75
2022-10-10T04:39:16.758Z,6.00
2022-10-10T04:41:44.590Z,4.75
2022-10-10T04:44:12.917Z,5.25
2022-10-10T04:46:40.800Z,5.50
2022-10-10T04:49:08.930Z,4.25
2022-10-10T04:51:38.569Z,4.75
2022-10-10T04:54:06.911Z,4.50
2022-10-10T04:56:34.838Z,3.50
2022-10-10T04:59:02.722Z,4.50
2022-10-10T05:01:30.580Z,3.50
2022-10-10T05:03:59.243Z,3.50
2022-10-10T05:06:27.174Z,3.50
2022-10-10T05:08:56.400Z,3.75
2022-10-10T05:11:24.242Z,5.00
2022-10-10T05:13:52.504Z,3.50
2022-10-10T05:16:20.354Z,3.75
2022-10-10T05:18:48.257Z,4.50
2022-10-10T05:21:16.098Z,3.50
2022-10-10T05:23:44.215Z,3.75
2022-10-10T05:26:14.055Z,4.00
2022-10-10T05:28:42.025Z,3.25
2022-10-10T05:31:10.605Z,3.25
2022-10-10T05:33:38.900Z,4.25
2022-10-10T05:36:08.420Z,3.50
2022-10-10T05:38:36.346Z,2.75
2022-10-10T05:41:04.368Z,3.50
2022-10-10T05:43:35.237Z,3.75
2022-10-10T05:46:03.120Z,3.50
2022-10-10T05:48:30.971Z,3.50
2022-10-10T05:50:59.897Z,3.50
2022-10-10T05:53:28.624Z,3.50
2022-10-10T05:55:56.507Z,3.50
2022-10-10T05:58:24.400Z,3.50
2022-10-10T06:00:55.028Z,3.00
2022-10-10T06:03:22.898Z,3.00
2022-10-10T06:05:53.646Z,3.50
2022-10-10T06:08:21.460Z,3.25
2022-10-10T06:10:49.346Z,3.00
2022-10-10T06:13:23.075Z,3.50
2022-10-10T06:15:52.301Z,3.50
2022-10-10T06:18:21.569Z,3.50
2022-10-10T06:20:49.432Z,2.75
2022-10-10T06:23:18.250Z,3.50
2022-10-10T06:25:46.105Z,3.00
2022-10-10T06:28:14.367Z,2.50
2022-10-10T06:30:42.712Z,3.00
2022-10-10T06:33:11.088Z,3.50
2022-10-10T06:35:43.609Z,3.50
2022-10-10T06:38:11.501Z,3.50
2022-10-10T06:40:39.387Z,2.50
2022-10-10T06:43:11.670Z,3.50
2022-10-10T06:45:39.631Z,3.50
2022-10-10T06:48:07.477Z,2.50
2022-10-10T06:50:35.423Z,3.50
2022-10-10T06:53:05.122Z,2.50
2022-10-10T06:55:32.973Z,3.50
2022-10-10T06:58:00.855Z,2.75
2022-10-10T07:00:29.244Z,3.50
2022-10-10T07:02:57.096Z,3.50
2022-10-10T07:05:25.009Z,3.50
2022-10-10T07:07:52.881Z,2.75
2022-10-10T07:10:22.154Z,3.50
2022-10-10T07:12:50.112Z,2.50
2022-10-10T07:15:18.485Z,2.50
2022-10-10T07:17:50.521Z,3.50
2022-10-10T07:20:21.509Z,3.50
2022-10-10T07:22:49.653Z,2.50
2022-10-10T07:25:18.390Z,2.50
2022-10-10T07:27:47.765Z,2.75
2022-10-10T07:30:15.618Z,2.50
2022-10-10T07:32:43.525Z,3.25
2022-10-10T07:35:12.412Z,3.25
2022-10-10T07:37:40.521Z,2.75
2022-10-10T07:40:10.025Z,2.50
2022-10-10T07:42:37.887Z,2.50
2022-10-10T07:45:12.111Z,3.00
2022-10-10T07:47:40.008Z,2.75
2022-10-10T07:50:08.784Z,2.50
2022-10-10T07:52:36.627Z,3.50
2022-10-10T07:55:05.438Z,2.50
2022-10-10T07:57:35.003Z,2.50
2022-10-10T08:00:03.610Z,2.50
2022-10-10T08:02:32.965Z,2.50
2022-10-10T08:05:01.207Z,3.50
2022-10-10T08:07:29.178Z,2.50
2022-10-10T08:09:57.121Z,2.50
2022-10-10T08:12:24.982Z,3.25
2022-10-10T08:14:53.286Z,1.50
2022-10-10T08:17:21.190Z,2.25
2022-10-10T08:19:50.520Z,2.75
2022-10-10T08:22:18.357Z,3.50
2022-10-10T08:24:46.767Z,3.50
2022-10-10T08:27:17.600Z,3.00
2022-10-10T08:29:45.467Z,3.50
2022-10-10T08:32:13.336Z,3.25
2022-10-10T08:34:41.833Z,3.50
2022-10-10T08:37:11.123Z,2.50
2022-10-10T08:39:38.994Z,2.50
2022-10-10T08:42:06.942Z,2.50
2022-10-10T08:44:38.847Z,2.75
2022-10-10T08:47:08.572Z,3.00
2022-10-10T08:49:37.926Z,2.75
2022-10-10T08:52:08.141Z,2.50
2022-10-10T08:54:37.621Z,3.50
2022-10-10T08:57:06.787Z,3.50
2022-10-10T08:59:36.227Z,2.50
2022-10-10T09:02:50.536Z,2.50
2022-10-10T09:05:25.676Z,2.75
2022-10-10T09:08:16.439Z,2.00
2022-10-10T09:10:50.471Z,2.50
2022-10-10T09:13:25.696Z,3.00
2022-10-10T09:15:55.793Z,2.75
2022-10-10T09:18:30.926Z,2.50
2022-10-10T09:21:01.166Z,3.00
2022-10-10T09:23:31.005Z,3.00
2022-10-10T09:26:03.668Z,3.25
2022-10-10T09:28:37.445Z,2.50
2022-10-10T09:31:07.176Z,2.75
2022-10-10T09:33:37.587Z,3.00
2022-10-10T09:36:07.065Z,2.50
2022-10-10T09:38:36.945Z,2.75
2022-10-10T09:41:09.247Z,2.75
2022-10-10T09:43:38.729Z,2.50
2022-10-10T09:46:06.742Z,2.50
2022-10-10T09:48:35.571Z,2.50
2022-10-10T09:51:04.024Z,2.50
2022-10-10T09:53:32.549Z,3.50
2022-10-10T09:56:00.482Z,3.00
2022-10-10T09:58:32.831Z,2.50
2022-10-10T10:01:18.277Z,2.75
2022-10-10T10:03:46.997Z,2.25
2022-10-10T10:06:15.941Z,2.75
2022-10-10T10:08:47.924Z,2.50
2022-10-10T10:11:29.153Z,2.75
2022-10-10T10:14:02.289Z,2.00
2022-10-10T10:16:34.525Z,3.75
2022-10-10T10:19:02.446Z,3.50
2022-10-10T10:21:31.410Z,2.50
2022-10-10T10:24:00.173Z,2.50
2022-10-10T10:26:45.670Z,2.75
2022-10-10T10:29:30.447Z,2.50
2022-10-10T10:32:02.830Z,2.50
2022-10-10T10:34:39.159Z,2.50
2022-10-10T10:37:14.868Z,2.75
2022-10-10T10:39:47.076Z,2.75
2022-10-10T10:42:23.371Z,3.25
2022-10-10T10:44:53.811Z,2.75
2022-10-10T10:47:32.372Z,3.50
2022-10-10T10:50:06.669Z,2.75
2022-10-10T10:52:50.603Z,2.75
2022-10-10T10:55:23.016Z,2.00
2022-10-10T10:58:37.185Z,2.75
2022-10-10T11:01:28.665Z,2.25
2022-10-10T11:05:18.282Z,2.50
2022-10-10T11:07:17.405Z,2.50
2022-10-10T11:09:50.051Z,2.50
2022-10-10T11:12:23.355Z,1.50
2022-10-10T11:14:57.946Z,2.75
2022-10-10T11:17:36.246Z,2.75
2022-10-10T11:20:08.204Z,2.50
2022-10-10T11:22:39.341Z,2.50
2022-10-10T11:25:14.788Z,2.00
2022-10-10T11:27:46.491Z,2.75
2022-10-10T11:30:18.465Z,2.50
2022-10-10T11:32:52.705Z,2.50
2022-10-10T11:35:35.193Z,2.00
2022-10-10T11:38:09.928Z,2.00
2022-10-10T11:40:47.238Z,2.75
2022-10-10T11:43:22.368Z,2.75
2022-10-10T11:46:02.673Z,2.75
2022-10-10T11:48:38.816Z,2.00
2022-10-10T11:51:16.248Z,2.50
2022-10-10T11:53:44.737Z,2.75
2022-10-10T11:56:16.877Z,2.50
2022-10-10T11:58:45.849Z,3.00
2022-10-10T12:01:17.367Z,2.50
2022-10-10T12:03:48.930Z,2.50
2022-10-10T12:06:24.837Z,3.00
2022-10-10T12:08:57.346Z,2.25
2022-10-10T12:11:27.955Z,2.50
2022-10-10T12:13:56.683Z,1.75
2022-10-10T12:16:30.551Z,2.50
2022-10-10T12:19:06.294Z,2.50
2022-10-10T12:21:53.853Z,2.00
2022-10-10T12:24:23.122Z,2.25
2022-10-10T12:27:25.904Z,2.50
2022-10-10T12:30:17.369Z,2.00
2022-10-10T12:32:47.172Z,1.50
2022-10-10T12:35:36.102Z,1.75
2022-10-10T12:38:21.973Z,2.75
2022-10-10T12:41:12.380Z,2.75
2022-10-10T12:43:44.160Z,1.25
2022-10-10T12:46:28.968Z,1.50
2022-10-10T12:49:16.909Z,2.00
2022-10-10T12:51:47.363Z,1.75
2022-10-10T12:54:26.646Z,2.00
2022-10-10T12:57:00.384Z,2.25
2022-10-10T12:59:29.406Z,2.50
2022-10-10T13:02:00.690Z,1.75
2022-10-10T13:04:29.344Z,2.00
2022-10-10T13:07:00.221Z,2.50
2022-10-10T13:09:33.928Z,2.50
2022-10-10T13:12:10.019Z,2.50
2022-10-10T13:14:41.748Z,2.50
2022-10-10T13:17:26.808Z,2.50
2022-10-10T13:19:55.104Z,2.50
2022-10-10T13:22:25.930Z,2.50
2022-10-10T13:24:53.854Z,1.50
2022-10-10T13:27:23.190Z,2.25
2022-10-10T13:29:51.195Z,1.50
2022-10-10T13:32:20.134Z,2.50
2022-10-10T13:34:50.414Z,2.50
2022-10-10T13:37:20.836Z,1.50
2022-10-10T13:39:50.856Z,2.50
2022-10-10T13:42:38.631Z,1.50
2022-10-10T13:45:30.934Z,1.75
2022-10-10T13:48:11.725Z,1.75
2022-10-10T13:51:01.911Z,2.75
2022-10-10T13:53:37.739Z,1.25
2022-10-10T13:56:08.559Z,1.75
2022-10-10T13:58:41.058Z,1.50
2022-10-10T14:01:31.545Z,2.00
2022-10-10T14:04:01.968Z,2.25
2022-10-10T14:06:29.813Z,1.75
2022-10-10T14:08:59.076Z,2.50
2022-10-10T14:11:28.646Z,2.50
2022-10-10T14:13:58.803Z,2.50
2022-10-10T14:16:27.086Z,2.00
2022-10-10T14:18:54.972Z,1.50
2022-10-10T14:21:24.227Z,2.50
2022-10-10T14:23:52.143Z,1.75
2022-10-10T14:26:20.811Z,2.00
2022-10-10T14:28:50.239Z,2.00
2022-10-10T14:31:18.539Z,2.50
2022-10-10T14:33:46.400Z,1.50
2022-10-10T14:36:14.907Z,1.50
2022-10-10T14:38:43.120Z,2.50
2022-10-10T14:41:12.984Z,2.50
2022-10-10T14:43:45.470Z,2.50
2022-10-10T14:46:17.869Z,2.50
2022-10-10T14:48:46.093Z,4.00
2022-10-10T14:51:34.380Z,4.25
2022-10-10T14:54:11.984Z,2.50
2022-10-10T14:57:07.600Z,3.50
2022-10-10T14:59:47.505Z,2.00
2022-10-10T15:02:20.301Z,2.00
2022-10-10T15:04:48.260Z,2.50
2022-10-10T15:07:16.241Z,3.50
2022-10-10T15:10:03.966Z,3.50
2022-10-10T15:12:32.549Z,3.00
2022-10-10T15:15:00.399Z,2.75
2022-10-10T15:17:30.548Z,3.50
2022-10-10T15:19:58.477Z,2.00
2022-10-10T15:22:27.495Z,2.50
2022-10-10T15:24:55.494Z,2.50
2022-10-10T15:27:23.472Z,2.75
2022-10-10T15:29:51.314Z,3.50
2022-10-10T15:32:19.445Z,3.50
2022-10-10T15:34:50.389Z,3.50
2022-10-10T15:37:18.266Z,4.25
2022-10-10T15:39:46.225Z,3.75
2022-10-10T15:42:19.911Z,4.50
2022-10-10T15:44:50.561Z,3.50
2022-10-10T15:47:19.419Z,3.50
2022-10-10T15:49:47.759Z,3.50
2022-10-10T15:52:17.131Z,3.50
2022-10-10T15:54:48.498Z,4.25
2022-10-10T15:57:18.719Z,3.50
2022-10-10T15:59:47.479Z,3.50
2022-10-10T16:02:15.459Z,3.75
2022-10-10T16:04:43.329Z,3.50
2022-10-10T16:07:29.502Z,3.50
2022-10-10T16:10:01.270Z,3.50
2022-10-10T16:12:29.204Z,3.50
2022-10-10T16:14:57.062Z,4.50
2022-10-10T16:17:24.920Z,3.00
2022-10-10T16:19:52.822Z,3.00
2022-10-10T16:22:21.091Z,3.50
2022-10-10T16:25:21.368Z,4.00
2022-10-10T16:27:38.585Z,4.00
2022-10-10T16:30:09.934Z,3.75
2022-10-10T16:32:41.950Z,3.50
2022-10-10T16:35:11.005Z,4.50
2022-10-10T16:37:39.155Z,4.25
2022-10-10T16:40:08.330Z,4.75
2022-10-10T16:42:36.296Z,4.75
2022-10-10T16:45:08.328Z,4.50
2022-10-10T16:47:36.261Z,4.00
2022-10-10T16:50:05.053Z,5.50
2022-10-10T16:52:37.778Z,5.50
2022-10-10T16:55:06.632Z,5.50
2022-10-10T16:57:35.154Z,6.00
2022-10-10T17:00:03.232Z,6.50
2022-10-10T17:02:32.475Z,6.75
2022-10-10T17:05:00.638Z,5.50
2022-10-10T17:07:28.529Z,5.50
2022-10-10T17:09:56.522Z,5.50
2022-10-10T17:12:24.433Z,6.50
2022-10-10T17:14:52.347Z,6.00
2022-10-10T17:17:20.414Z,6.50
2022-10-10T17:19:49.677Z,5.50
2022-10-10T17:22:17.928Z,6.25
2022-10-10T17:24:45.833Z,6.00
2022-10-10T17:27:14.046Z,5.25
2022-10-10T17:29:42.095Z,6.50
2022-10-10T17:32:10.267Z,6.00
2022-10-10T17:34:38.113Z,6.25
2022-10-10T17:37:07.390Z,5.50
2022-10-10T17:39:35.561Z,6.50
2022-10-10T17:42:04.629Z,5.00
2022-10-10T17:44:37.338Z,6.25
2022-10-10T17:47:08.333Z,5.25
2022-10-10T17:49:36.262Z,5.00
2022-10-10T17:52:04.152Z,5.25
2022-10-10T17:54:33.545Z,4.50
2022-10-10T17:57:02.508Z,4.50
2022-10-10T17:59:30.355Z,5.50
2022-10-10T18:01:58.206Z,5.50
2022-10-10T18:04:26.135Z,5.25
2022-10-10T18:06:54.031Z,3.75
2022-10-10T18:09:21.893Z,4.50
2022-10-10T18:11:51.409Z,5.50
2022-10-10T18:14:19.308Z,6.00
2022-10-10T18:16:47.179Z,5.00
2022-10-10T18:19:15.108Z,4.50
2022-10-10T18:21:42.964Z,4.50
2022-10-10T18:24:10.827Z,5.00
2022-10-10T18:26:38.766Z,4.50
2022-10-10T18:29:07.994Z,4.25
2022-10-10T18:31:36.753Z,4.50
2022-10-10T18:34:05.905Z,4.25
2022-10-10T18:36:35.409Z,5.00
2022-10-10T18:39:05.906Z,5.25
2022-10-10T18:41:35.030Z,4.50
2022-10-10T18:44:03.102Z,4.50
2022-10-10T18:46:32.438Z,5.50
2022-10-10T18:49:01.462Z,5.25
2022-10-10T18:51:30.320Z,6.75
2022-10-10T18:54:00.877Z,6.50
2022-10-10T18:56:29.201Z,6.50
2022-10-10T18:58:58.263Z,5.50
2022-10-10T19:01:27.315Z,5.50
2022-10-10T19:03:56.664Z,5.50
2022-10-10T19:06:24.904Z,5.50
2022-10-10T19:08:52.844Z,5.50
2022-10-10T19:11:22.304Z,5.50
2022-10-10T19:13:50.419Z,6.75
2022-10-10T19:16:18.515Z,7.50
2022-10-10T19:18:46.373Z,6.75
2022-10-10T19:21:16.303Z,6.50
2022-10-10T19:23:44.442Z,6.50
2022-10-10T19:26:14.090Z,6.75
2022-10-10T19:28:42.023Z,6.50
2022-10-10T19:31:11.291Z,6.50
2022-10-10T19:33:39.219Z,6.00
2022-10-10T19:36:09.212Z,6.75
2022-10-10T19:38:39.751Z,6.50
2022-10-10T19:41:08.188Z,8.00
2022-10-10T19:43:36.107Z,7.75
2022-10-10T19:46:06.001Z,7.00
2022-10-10T19:48:36.818Z,7.50
2022-10-10T19:51:05.165Z,6.50
2022-10-10T19:53:33.476Z,7.50
2022-10-10T19:56:03.992Z,7.50
2022-10-10T19:58:32.229Z,6.25
2022-10-10T20:01:00.423Z,6.50
2022-10-10T20:03:28.363Z,7.25
2022-10-10T20:06:00.830Z,5.50
2022-10-10T20:08:29.134Z,5.50
2022-10-10T20:10:57.310Z,6.75
2022-10-10T20:13:26.602Z,5.50
2022-10-10T20:15:54.426Z,4.50
2022-10-10T20:18:22.510Z,5.00
2022-10-10T20:20:51.714Z,5.50
2022-10-10T20:23:20.709Z,5.50
2022-10-10T20:25:48.583Z,6.00
2022-10-10T20:28:17.576Z,5.00
2022-10-10T20:30:48.696Z,7.00
2022-10-10T20:33:16.608Z,5.75
2022-10-10T20:35:46.449Z,6.50
2022-10-10T20:38:14.592Z,7.25
2022-10-10T20:40:43.624Z,5.50
2022-10-10T20:43:12.106Z,5.50
2022-10-10T20:45:40.383Z,5.25
2022-10-10T20:48:09.902Z,5.50
2022-10-10T20:50:38.220Z,5.00
2022-10-10T20:53:06.136Z,6.00
2022-10-10T20:55:34.167Z,4.75
2022-10-10T20:58:02.102Z,5.50
2022-10-10T21:00:30.310Z,5.00
2022-10-10T21:02:58.242Z,5.00
2022-10-10T21:05:27.451Z,4.50
2022-10-10T21:07:55.289Z,4.50
2022-10-10T21:10:23.447Z,4.50
2022-10-10T21:12:51.440Z,4.50
2022-10-10T21:15:19.539Z,4.50
2022-10-10T21:17:49.357Z,4.50
2022-10-10T21:20:17.601Z,4.00
2022-10-10T21:22:46.868Z,4.00
2022-10-10T21:25:14.776Z,4.50
2022-10-10T21:27:42.669Z,4.25
2022-10-10T21:30:11.660Z,4.50
2022-10-10T21:32:39.543Z,3.50
2022-10-10T21:35:08.097Z,3.00
2022-10-10T21:37:36.629Z,2.50
2022-10-10T21:40:07.794Z,3.25
2022-10-10T21:42:35.699Z,3.00
2022-10-10T21:45:03.618Z,4.50
2022-10-10T21:47:31.546Z,4.50
2022-10-10T21:49:59.456Z,4.50
2022-10-10T21:52:27.411Z,4.50
2022-10-10T21:54:55.311Z,3.75
2022-10-10T21:57:24.668Z,4.50
2022-10-10T21:59:52.532Z,4.50
2022-10-10T22:02:20.436Z,3.50
2022-10-10T22:04:51.144Z,3.25
2022-10-10T22:07:19.032Z,4.50
2022-10-10T22:09:46.944Z,3.50
2022-10-10T22:12:16.474Z,3.50
2022-10-10T22:14:45.695Z,2.50
2022-10-10T22:17:13.657Z,4.00
2022-10-10T22:19:41.686Z,3.00
2022-10-10T22:22:09.845Z,3.50
2022-10-10T22:24:37.848Z,3.00
2022-10-10T22:27:05.701Z,2.50
2022-10-10T22:29:33.567Z,2.75
2022-10-10T22:32:03.133Z,3.25
2022-10-10T22:34:30.982Z,2.75
2022-10-10T22:36:58.870Z,2.50
2022-10-10T22:39:28.121Z,2.50
2022-10-10T22:41:56.279Z,2.50
2022-10-10T22:44:24.127Z,2.25
2022-10-10T22:46:51.993Z,1.75
2022-10-10T22:49:21.535Z,2.00
2022-10-10T22:51:49.446Z,2.25
2022-10-10T22:54:17.381Z,2.00
2022-10-10T22:56:45.344Z,2.50
2022-10-10T22:59:13.273Z,1.75
2022-10-10T23:01:41.561Z,2.50
2022-10-10T23:04:10.332Z,2.50
2022-10-10T23:06:39.577Z,1.50
2022-10-10T23:09:07.503Z,1.50
2022-10-10T23:11:35.637Z,1.50
2022-10-10T23:14:03.540Z,1.50
2022-10-10T23:16:32.929Z,1.50
2022-10-10T23:19:00.899Z,1.50
2022-10-10T23:21:29.196Z,1.50
2022-10-10T23:23:58.455Z,2.00
2022-10-10T23:26:26.319Z,1.50
2022-10-10T23:28:54.285Z,1.50
2022-10-10T23:31:22.493Z,1.00
2022-10-10T23:33:50.332Z,1.50
2022-10-10T23:36:18.203Z,0.75
2022-10-10T23:38:46.500Z,1.00
2022-10-10T23:41:16.062Z,1.50
2022-10-10T23:43:44.178Z,1.50
2022-10-10T23:46:12.077Z,1.50
2022-10-10T23:48:40.286Z,1.50
2022-10-10T23:51:08.261Z,1.25
2022-10-10T23:53:36.225Z,1.50
2022-10-10T23:56:04.458Z,1.50
2022-10-10T23:58:33.920Z,1.00
